createdAt,value
2022-11-16T00:00:59.755Z,88.30
2022-11-16T00:03:26.548Z,88.57
2022-11-16T00:06:01.020Z,88.86
2022-11-16T00:08:30.722Z,88.58
2022-11-16T00:11:09.020Z,88.86
2022-11-16T00:13:36.829Z,89.18
2022-11-16T00:16:04.663Z,89.06
2022-11-16T00:18:31.894Z,89.00
2022-11-16T00:20:58.951Z,88.80
2022-11-16T00:23:25.777Z,88.86
2022-11-16T00:25:53.722Z,89.41
2022-11-16T00:28:20.349Z,88.95
2022-11-16T00:30:47.038Z,88.79
2022-11-16T00:33:17.957Z,88.93
2022-11-16T00:35:44.576Z,88.71
2022-11-16T00:38:11.285Z,88.94
2022-11-16T00:40:37.953Z,89.40
2022-11-16T00:43:04.702Z,88.49
2022-11-16T00:45:31.523Z,88.76
2022-11-16T00:48:00.579Z,88.69
2022-11-16T00:50:27.360Z,89.09
2022-11-16T00:52:54.507Z,88.91
2022-11-16T00:55:21.333Z,88.76
2022-11-16T00:57:48.075Z,88.37
2022-11-16T01:00:15.303Z,88.59
2022-11-16T01:02:42.308Z,88.67
2022-11-16T01:05:10.306Z,88.81
2022-11-16T01:07:38.089Z,88.41
2022-11-16T01:10:07.807Z,88.92
2022-11-16T01:12:34.849Z,88.82
2022-11-16T01:15:01.692Z,89.02
2022-11-16T01:17:28.513Z,88.37
2022-11-16T01:19:55.295Z,88.36
2022-11-16T01:22:21.929Z,88.84
2022-11-16T01:24:48.607Z,88.65
2022-11-16T01:27:15.301Z,88.90
2022-11-16T01:29:42.330Z,88.60
2022-11-16T01:32:09.236Z,89.21
2022-11-16T01:34:36.261Z,89.48
2022-11-16T01:37:02.969Z,89.24
2022-11-16T01:39:29.627Z,89.16
2022-11-16T01:41:56.332Z,89.57
2022-11-16T01:44:32.088Z,89.41
2022-11-16T01:46:59.351Z,89.49
2022-11-16T01:49:29.065Z,89.79
2022-11-16T01:52:02.243Z,89.76
2022-11-16T01:54:31.120Z,90.19
2022-11-16T01:57:02.399Z,89.93
2022-11-16T01:59:30.059Z,90.24
2022-11-16T02:01:58.794Z,90.06
2022-11-16T02:04:25.736Z,89.81
2022-11-16T02:07:24.632Z,90.34
2022-11-16T02:10:21.043Z,90.33
2022-11-16T02:12:56.513Z,90.22
2022-11-16T02:15:23.206Z,90.70
2022-11-16T02:18:11.723Z,90.98
2022-11-16T02:21:00.762Z,90.79
2022-11-16T02:23:42.351Z,90.68
2022-11-16T02:26:20.967Z,90.83
2022-11-16T02:29:21.620Z,90.94
2022-11-16T02:31:59.844Z,91.17
2022-11-16T02:34:33.626Z,91.14
2022-11-16T02:37:02.595Z,91.19
2022-11-16T02:39:32.717Z,91.18
2022-11-16T02:42:01.806Z,91.17
2022-11-16T02:44:34.496Z,91.18
2022-11-16T02:47:05.383Z,91.32
2022-11-16T02:49:37.973Z,91.92
2022-11-16T02:52:05.215Z,91.79
2022-11-16T02:54:31.857Z,91.94
2022-11-16T02:57:04.424Z,91.71
2022-11-16T02:59:37.716Z,91.97
2022-11-16T03:02:16.274Z,91.97
2022-11-16T03:04:54.651Z,92.07
2022-11-16T03:07:27.380Z,91.95
2022-11-16T03:09:55.603Z,92.00
2022-11-16T03:12:27.105Z,92.53
2022-11-16T03:15:01.614Z,92.37
2022-11-16T03:17:39.658Z,92.66
2022-11-16T03:20:20.875Z,92.76
2022-11-16T03:22:54.140Z,92.42
2022-11-16T03:25:24.289Z,92.55
2022-11-16T03:28:07.897Z,92.76
2022-11-16T03:30:40.947Z,93.03
2022-11-16T03:33:20.235Z,93.08
2022-11-16T03:35:59.777Z,93.53
2022-11-16T03:38:28.673Z,93.06
2022-11-16T03:41:01.145Z,92.96
2022-11-16T03:43:28.555Z,92.94
2022-11-16T03:45:56.278Z,93.13
2022-11-16T03:48:23.263Z,92.92
2022-11-16T03:50:50.502Z,93.19
2022-11-16T03:53:17.448Z,93.15
2022-11-16T03:55:49.615Z,93.21
2022-11-16T03:58:18.770Z,93.51
2022-11-16T04:00:46.009Z,93.50
2022-11-16T04:03:12.751Z,93.85
2022-11-16T04:05:58.273Z,93.20
2022-11-16T04:09:00.295Z,93.41
2022-11-16T04:11:45.679Z,93.86
2022-11-16T04:14:39.155Z,93.76
2022-11-16T04:17:38.382Z,93.44
2022-11-16T04:20:24.351Z,93.74
2022-11-16T04:23:21.944Z,93.74
2022-11-16T04:25:51.111Z,93.73
2022-11-16T04:28:21.360Z,93.70
2022-11-16T04:31:09.706Z,94.29
2022-11-16T04:33:55.393Z,94.26
2022-11-16T04:36:41.029Z,94.36
2022-11-16T04:39:08.487Z,94.29
2022-11-16T04:41:57.462Z,94.38
2022-11-16T04:45:07.469Z,94.33
2022-11-16T04:50:48.062Z,94.14
2022-11-16T04:53:15.537Z,93.82
2022-11-16T04:55:42.404Z,94.42
2022-11-16T04:58:14.442Z,94.60
2022-11-16T05:00:41.698Z,94.24
2022-11-16T05:03:10.714Z,94.01
2022-11-16T05:05:50.520Z,93.90
2022-11-16T05:08:42.002Z,94.43
2022-11-16T05:11:27.040Z,94.42
2022-11-16T05:14:10.692Z,94.26
2022-11-16T05:16:39.088Z,95.07
2022-11-16T05:19:24.611Z,94.28
2022-11-16T05:21:59.135Z,94.48
2022-11-16T05:24:39.043Z,94.68
2022-11-16T05:27:15.981Z,94.30
2022-11-16T05:29:53.136Z,94.59
2022-11-16T05:32:23.923Z,94.75
2022-11-16T05:34:55.911Z,94.99
2022-11-16T05:37:31.041Z,95.23
2022-11-16T05:40:10.497Z,94.53
2022-11-16T05:42:39.790Z,94.67
2022-11-16T05:45:21.517Z,95.01
2022-11-16T05:47:51.326Z,94.55
2022-11-16T05:50:21.321Z,94.77
2022-11-16T05:52:50.993Z,94.88
2022-11-16T05:55:21.054Z,94.93
2022-11-16T05:57:47.792Z,94.68
2022-11-16T06:00:15.195Z,95.22
2022-11-16T06:02:42.375Z,94.73
2022-11-16T06:05:09.285Z,95.25
2022-11-16T06:07:35.924Z,94.96
2022-11-16T06:10:02.663Z,95.30
2022-11-16T06:12:29.281Z,95.50
2022-11-16T06:14:56.189Z,95.55
2022-11-16T06:17:22.975Z,95.46
2022-11-16T06:19:49.591Z,95.11
2022-11-16T06:22:16.248Z,95.49
2022-11-16T06:24:42.961Z,95.46
2022-11-16T06:27:09.582Z,95.53
2022-11-16T06:29:36.250Z,95.14
2022-11-16T06:32:02.938Z,95.17
2022-11-16T06:34:29.589Z,95.67
2022-11-16T06:39:31.640Z,95.32
2022-11-16T06:55:21.374Z,95.76
2022-11-16T07:05:46.448Z,95.37
2022-11-16T07:08:13.249Z,95.59
2022-11-16T07:13:18.081Z,95.74
2022-11-16T07:29:07.422Z,95.91
2022-11-16T07:36:51.414Z,95.58
2022-11-16T07:39:18.057Z,95.61
2022-11-16T07:41:45.306Z,95.91
2022-11-16T07:49:35.420Z,95.79
2022-11-16T07:57:19.690Z,95.63
2022-11-16T07:59:46.300Z,95.39
2022-11-16T08:04:48.202Z,95.42
2022-11-16T08:15:14.290Z,96.03
2022-11-16T08:20:17.011Z,95.56
2022-11-16T08:25:18.949Z,95.80
2022-11-16T08:33:02.339Z,95.32
2022-11-16T08:56:35.714Z,95.26
2022-11-16T08:59:02.603Z,95.25
2022-11-16T09:01:31.510Z,95.66
2022-11-16T09:03:59.414Z,95.70
2022-11-16T09:06:27.674Z,95.26
2022-11-16T09:08:55.210Z,95.51
2022-11-16T09:11:24.170Z,94.87
2022-11-16T09:13:53.094Z,94.77
2022-11-16T09:16:21.179Z,94.40
2022-11-16T09:18:50.179Z,93.48
2022-11-16T09:21:25.553Z,94.33
2022-11-16T09:23:53.224Z,93.67
2022-11-16T09:26:23.106Z,93.57
2022-11-16T09:29:04.536Z,93.48
2022-11-16T09:31:34.796Z,93.61
2022-11-16T09:34:01.619Z,93.37
2022-11-16T10:36:21.361Z,86.92
2022-11-16T10:38:51.213Z,87.55
2022-11-16T10:41:36.529Z,87.72
2022-11-16T10:44:29.376Z,88.24
2022-11-16T10:47:07.616Z,88.92
2022-11-16T10:49:45.284Z,88.97
2022-11-16T10:52:12.740Z,88.44
2022-11-16T10:54:44.030Z,82.44
2022-11-16T11:40:19.964Z,69.92
2022-11-16T11:48:21.185Z,69.82
2022-11-16T11:50:53.160Z,62.68
2022-11-16T11:55:59.904Z,54.40
2022-11-16T11:58:31.151Z,54.30
2022-11-16T12:01:25.881Z,52.55
2022-11-16T12:04:12.416Z,51.19
2022-11-16T12:06:54.934Z,47.86
2022-11-16T12:12:35.244Z,46.38
2022-11-16T12:17:55.202Z,46.33
2022-11-16T12:20:47.516Z,44.49
2022-11-16T12:23:48.198Z,42.19
2022-11-16T12:26:40.021Z,42.57
2022-11-16T12:29:32.136Z,42.18
2022-11-16T12:32:10.861Z,43.11
2022-11-16T12:34:53.260Z,41.76
2022-11-16T12:37:35.983Z,40.97
2022-11-16T12:40:50.699Z,41.34
2022-11-16T12:43:49.375Z,42.60
2022-11-16T12:46:24.745Z,45.66
2022-11-16T12:49:00.051Z,49.76
2022-11-16T12:51:49.071Z,52.32
2022-11-16T12:54:25.000Z,55.83
2022-11-16T12:57:26.904Z,57.13
2022-11-16T12:59:56.747Z,59.18
2022-11-16T13:02:57.076Z,60.66
2022-11-16T13:05:36.539Z,61.42
2022-11-16T13:08:11.403Z,62.25
2022-11-16T13:10:45.670Z,63.20
2022-11-16T13:16:07.008Z,52.01
2022-11-16T13:18:36.223Z,47.98
2022-11-16T13:21:46.673Z,47.35
2022-11-16T13:24:38.059Z,52.12
2022-11-16T13:27:21.657Z,54.13
2022-11-16T13:29:48.429Z,55.11
2022-11-16T13:32:26.415Z,56.71
2022-11-16T13:34:53.674Z,56.09
2022-11-16T13:37:38.306Z,51.67
2022-11-16T13:40:05.165Z,47.09
2022-11-16T13:43:02.846Z,44.81
2022-11-16T13:45:53.059Z,44.86
2022-11-16T13:48:37.208Z,42.22
2022-11-16T13:51:07.559Z,39.93
2022-11-16T13:56:49.206Z,39.87
2022-11-16T13:59:16.714Z,40.01
2022-11-16T14:02:23.070Z,40.72
2022-11-16T14:05:01.262Z,39.12
2022-11-16T14:07:33.795Z,38.42
2022-11-16T14:10:01.528Z,37.39
2022-11-16T14:12:53.718Z,39.89
2022-11-16T14:15:29.142Z,40.85
2022-11-16T14:18:01.005Z,43.09
2022-11-16T14:20:55.176Z,46.82
2022-11-16T14:23:38.476Z,47.96
2022-11-16T14:26:12.966Z,50.99
2022-11-16T14:29:12.952Z,52.84
2022-11-16T14:31:48.865Z,54.79
2022-11-16T14:34:22.660Z,55.53
2022-11-16T14:36:50.288Z,55.93
2022-11-16T14:39:37.440Z,56.93
2022-11-16T14:42:14.106Z,57.71
2022-11-16T14:44:40.971Z,58.64
2022-11-16T14:47:22.406Z,58.91
2022-11-16T14:49:49.494Z,59.54
2022-11-16T14:52:19.039Z,59.97
2022-11-16T14:54:55.466Z,60.77
2022-11-16T14:57:24.638Z,61.46
2022-11-16T15:00:08.742Z,64.05
2022-11-16T15:02:36.445Z,63.47
2022-11-16T15:05:03.313Z,63.65
2022-11-16T15:07:30.587Z,64.54
2022-11-16T15:09:59.899Z,65.24
2022-11-16T15:12:46.131Z,65.97
2022-11-16T15:15:12.649Z,65.99
2022-11-16T15:17:41.588Z,67.00
2022-11-16T15:20:20.083Z,66.87
2022-11-16T15:22:50.705Z,68.00
2022-11-16T15:25:42.730Z,69.73
2022-11-16T15:28:18.616Z,69.79
2022-11-16T15:30:49.728Z,70.86
2022-11-16T15:33:22.164Z,71.37
2022-11-16T15:35:48.789Z,71.95
2022-11-16T15:38:23.844Z,72.82
2022-11-16T15:40:57.763Z,74.03
2022-11-16T15:43:29.082Z,74.88
2022-11-16T15:45:56.255Z,75.08
2022-11-16T15:48:24.993Z,75.72
2022-11-16T15:51:05.515Z,75.79
2022-11-16T15:53:44.196Z,76.27
2022-11-16T15:56:33.015Z,76.47
2022-11-16T15:59:09.484Z,77.30
2022-11-16T16:01:43.005Z,77.68
2022-11-16T16:04:15.919Z,77.78
2022-11-16T16:06:42.620Z,78.60
2022-11-16T16:09:18.352Z,79.03
2022-11-16T16:11:45.033Z,79.19
2022-11-16T16:14:26.799Z,79.88
2022-11-16T16:16:56.955Z,79.67
2022-11-16T16:19:37.195Z,79.72
2022-11-16T16:22:05.845Z,80.44
2022-11-16T16:24:37.173Z,80.38
2022-11-16T16:27:19.874Z,79.78
2022-11-16T16:29:48.605Z,80.29
2022-11-16T16:32:30.499Z,80.87
2022-11-16T16:34:59.453Z,81.23
2022-11-16T16:37:27.929Z,80.89
2022-11-16T16:39:54.734Z,81.41
2022-11-16T16:42:21.390Z,81.53
2022-11-16T16:44:48.600Z,81.66
2022-11-16T16:47:17.005Z,80.64
2022-11-16T16:49:44.174Z,81.03
2022-11-16T16:52:12.736Z,80.95
2022-11-16T16:54:40.472Z,81.46
2022-11-16T16:57:07.357Z,81.82
2022-11-16T16:59:33.962Z,81.46
2022-11-16T17:02:00.678Z,82.08
2022-11-16T17:04:27.353Z,82.13
2022-11-16T17:06:54.561Z,81.82
2022-11-16T17:09:21.328Z,82.25
2022-11-16T17:11:48.090Z,82.27
2022-11-16T17:14:14.700Z,82.74
2022-11-16T17:16:41.416Z,82.39
2022-11-16T17:19:08.233Z,82.75
2022-11-16T17:21:34.902Z,82.58
2022-11-16T17:24:01.671Z,82.21
2022-11-16T17:26:29.603Z,82.99
2022-11-16T17:28:57.361Z,82.69
2022-11-16T17:31:25.484Z,83.41
2022-11-16T17:33:52.669Z,83.17
2022-11-16T17:36:20.505Z,83.34
2022-11-16T17:38:47.202Z,83.78
2022-11-16T17:41:16.716Z,84.23
2022-11-16T17:43:45.114Z,84.33
2022-11-16T17:46:14.236Z,83.91
2022-11-16T17:48:43.383Z,84.11
2022-11-16T17:51:15.274Z,84.24
2022-11-16T17:53:44.355Z,84.25
2022-11-16T17:56:12.787Z,84.63
2022-11-16T17:58:39.458Z,83.85
2022-11-16T18:01:06.089Z,84.86
2022-11-16T18:03:36.194Z,84.40
2022-11-16T18:06:09.125Z,100.00
2022-11-16T18:08:36.735Z,100.00
2022-11-16T18:11:08.313Z,100.00
2022-11-16T18:13:36.107Z,100.00
2022-11-16T18:16:12.186Z,100.00
2022-11-16T18:18:39.279Z,100.00
2022-11-16T18:21:07.660Z,100.00
2022-11-16T18:23:36.227Z,100.00
2022-11-16T18:26:15.482Z,100.00
2022-11-16T18:28:45.454Z,100.00
2022-11-16T18:31:15.442Z,100.00
2022-11-16T18:33:42.914Z,100.00
2022-11-16T18:36:11.098Z,100.00
2022-11-16T18:38:38.907Z,100.00
2022-11-16T18:41:11.635Z,100.00
2022-11-16T18:43:40.504Z,100.00
2022-11-16T18:46:08.016Z,100.00
2022-11-16T18:48:34.913Z,100.00
2022-11-16T18:51:03.218Z,100.00
2022-11-16T18:53:31.495Z,100.00
2022-11-16T18:55:59.005Z,100.00
2022-11-16T19:01:16.852Z,100.00
2022-11-16T19:03:47.687Z,100.00
2022-11-16T19:06:20.616Z,100.00
2022-11-16T19:08:55.373Z,100.00
2022-11-16T19:11:24.668Z,100.00
2022-11-16T19:14:08.989Z,100.00
2022-11-16T19:16:36.781Z,100.00
2022-11-16T19:19:15.034Z,100.00
2022-11-16T19:21:42.841Z,100.00
2022-11-16T19:24:12.518Z,100.00
2022-11-16T19:26:41.786Z,100.00
2022-11-16T19:29:39.157Z,100.00
2022-11-16T19:37:24.053Z,100.00
2022-11-16T19:39:50.980Z,100.00
2022-11-16T19:42:23.136Z,100.00
2022-11-16T19:47:26.662Z,100.00
2022-11-16T19:49:53.402Z,100.00
2022-11-16T19:52:20.342Z,84.91
2022-11-16T19:54:48.392Z,82.92
2022-11-16T19:57:17.008Z,83.04
2022-11-16T19:59:44.025Z,83.27
2022-11-16T20:02:20.597Z,82.43
2022-11-16T20:07:23.206Z,82.90
2022-11-16T20:09:58.726Z,82.72
2022-11-16T20:12:25.688Z,82.25
2022-11-16T20:14:52.483Z,82.85
2022-11-16T20:17:19.283Z,82.71
2022-11-16T20:19:46.575Z,83.35
2022-11-16T20:22:13.612Z,82.84
2022-11-16T20:24:40.403Z,83.31
2022-11-16T20:27:08.012Z,83.14
2022-11-16T20:29:34.641Z,83.61
2022-11-16T20:32:01.309Z,84.11
2022-11-16T20:34:28.006Z,83.93
2022-11-16T20:36:54.662Z,83.47
2022-11-16T20:39:21.624Z,84.27
2022-11-16T20:41:50.265Z,84.01
2022-11-16T20:44:21.178Z,83.94
2022-11-16T20:46:49.049Z,84.18
2022-11-16T20:49:16.119Z,84.89
2022-11-16T20:51:42.817Z,85.00
2022-11-16T20:54:09.553Z,84.24
2022-11-16T20:56:36.438Z,84.15
2022-11-16T20:59:03.578Z,84.74
2022-11-16T21:01:32.856Z,84.64
2022-11-16T21:04:01.905Z,85.18
2022-11-16T21:06:29.046Z,84.31
2022-11-16T21:08:56.312Z,84.77
2022-11-16T21:11:29.198Z,84.40
2022-11-16T21:14:15.381Z,84.49
2022-11-16T21:16:42.580Z,84.92
2022-11-16T21:19:09.488Z,85.64
2022-11-16T21:21:36.396Z,84.81
2022-11-16T21:24:03.171Z,84.70
2022-11-16T21:26:32.237Z,83.89
2022-11-16T21:29:00.168Z,84.38
2022-11-16T21:31:29.946Z,84.36
2022-11-16T21:33:57.937Z,84.47
2022-11-16T21:36:26.536Z,85.58
2022-11-16T21:38:53.848Z,85.81
2022-11-16T21:41:23.089Z,85.31
2022-11-16T21:43:50.051Z,85.52
2022-11-16T21:46:27.672Z,85.55
2022-11-16T21:48:56.806Z,85.63
2022-11-16T21:51:26.125Z,86.07
2022-11-16T21:53:53.446Z,85.70
2022-11-16T21:56:22.397Z,85.76
2022-11-16T21:58:53.567Z,86.06
2022-11-16T22:01:21.160Z,85.87
2022-11-16T22:04:08.465Z,86.44
2022-11-16T22:06:54.376Z,86.07
2022-11-16T22:09:21.295Z,85.54
2022-11-16T22:11:48.157Z,86.37
2022-11-16T22:14:14.971Z,85.62
2022-11-16T22:16:41.614Z,85.46
2022-11-16T22:19:08.242Z,85.91
2022-11-16T22:21:35.031Z,85.88
2022-11-16T22:24:02.691Z,85.29
2022-11-16T22:26:29.493Z,85.57
2022-11-16T22:28:56.344Z,85.96
2022-11-16T22:31:23.021Z,85.48
2022-11-16T22:33:52.891Z,86.62
2022-11-16T22:36:19.666Z,86.45
2022-11-16T22:38:46.517Z,86.50
2022-11-16T22:41:13.281Z,85.91
2022-11-16T22:43:40.352Z,86.21
2022-11-16T22:46:07.181Z,86.33
2022-11-16T22:48:36.956Z,86.39
2022-11-16T22:51:23.422Z,86.53
2022-11-16T22:53:58.623Z,86.15
2022-11-16T22:56:26.222Z,85.23
2022-11-16T22:58:53.330Z,85.27
2022-11-16T23:01:20.181Z,85.41
2022-11-16T23:03:48.014Z,85.37
2022-11-16T23:06:14.885Z,84.95
2022-11-16T23:08:41.829Z,85.26
2022-11-16T23:11:36.452Z,86.00
2022-11-16T23:14:23.330Z,85.00
2022-11-16T23:16:50.721Z,85.63
2022-11-16T23:19:38.397Z,84.96
2022-11-16T23:22:24.565Z,85.90
2022-11-16T23:25:10.009Z,85.75
2022-11-16T23:28:07.910Z,85.49
2022-11-16T23:30:35.241Z,85.34
2022-11-16T23:33:03.011Z,85.62
2022-11-16T23:35:29.819Z,85.93
2022-11-16T23:38:01.649Z,86.22
2022-11-16T23:40:33.612Z,85.48
2022-11-16T23:43:18.698Z,85.78
2022-11-16T23:45:46.096Z,86.31
2022-11-16T23:48:16.153Z,85.08
2022-11-16T23:50:44.412Z,85.49
2022-11-16T23:53:11.969Z,85.15
2022-11-16T23:55:39.589Z,85.86
2022-11-16T23:58:10.824Z,85.23
